createdAt,value
2023-05-13T00:59:57.126Z,3.38
2023-05-13T02:20:34.201Z,2.50
2023-05-13T02:24:03.507Z,2.97
2023-05-13T13:17:10.150Z,1.80
2023-05-13T13:35:45.623Z,1.80
2023-05-13T13:42:58.551Z,1.70
2023-05-13T13:46:03.164Z,1.65
2023-05-13T13:48:53.142Z,1.88
2023-05-13T13:51:58.404Z,2.40
2023-05-13T14:10:28.853Z,2.88
2023-05-13T14:12:59.562Z,2.70
2023-05-13T14:15:50.463Z,2.60
2023-05-13T14:18:19.105Z,2.97
2023-05-13T14:20:51.068Z,2.95
2023-05-13T14:23:20.033Z,2.47
2023-05-13T14:26:01.495Z,3.00
2023-05-13T14:31:00.431Z,3.95
2023-05-13T14:33:31.308Z,4.40
2023-05-13T14:36:00.125Z,3.42
2023-05-13T14:38:32.253Z,3.95
2023-05-13T14:41:00.776Z,3.80
2023-05-13T14:43:29.089Z,3.90
2023-05-13T14:46:00.354Z,3.25
2023-05-13T14:48:28.963Z,2.83
2023-05-13T14:50:59.982Z,2.83
2023-05-13T14:53:31.495Z,2.90
2023-05-13T14:56:00.044Z,3.22
2023-05-13T14:58:28.732Z,2.42
2023-05-13T15:00:59.676Z,2.25
2023-05-13T15:03:28.046Z,2.83
2023-05-13T15:06:02.458Z,3.10
2023-05-13T15:08:31.095Z,3.17
2023-05-13T15:11:01.974Z,2.85
2023-05-13T15:13:36.831Z,2.90
2023-05-13T15:16:05.532Z,2.55
2023-05-13T15:19:03.778Z,2.53
2023-05-13T15:27:04.459Z,2.97
2023-05-13T15:29:33.446Z,2.67
2023-05-13T15:35:02.199Z,3.38
2023-05-13T15:37:31.513Z,3.22
2023-05-13T15:40:25.596Z,2.58
2023-05-13T15:50:06.956Z,2.80
2023-05-13T15:58:05.740Z,3.63
2023-05-13T16:09:48.008Z,3.10
2023-05-13T16:13:09.528Z,2.60
2023-05-13T16:55:15.167Z,3.28
2023-05-13T17:04:50.009Z,3.30
2023-05-13T17:24:05.529Z,3.40
2023-05-13T17:26:49.874Z,3.60
2023-05-13T17:32:37.210Z,4.88
2023-05-13T17:35:40.923Z,5.07
2023-05-13T17:45:09.497Z,5.25
2023-05-13T17:50:42.561Z,4.47
2023-05-13T17:59:52.786Z,4.95
2023-05-13T18:03:37.282Z,4.78
2023-05-13T18:19:14.028Z,4.18
2023-05-13T18:24:14.156Z,3.72
2023-05-13T18:27:07.815Z,3.92
2023-05-13T18:29:39.180Z,3.90
2023-05-13T18:32:09.350Z,3.13
2023-05-13T18:37:14.082Z,4.18
2023-05-13T18:39:50.398Z,4.45
2023-05-13T18:45:41.560Z,3.90
2023-05-13T18:48:13.858Z,3.00
2023-05-13T18:50:42.530Z,3.78
2023-05-13T18:56:12.894Z,3.78
2023-05-13T18:58:41.628Z,3.90
2023-05-13T19:01:10.476Z,4.25
2023-05-13T19:03:41.948Z,4.07
2023-05-13T19:06:43.854Z,4.18
2023-05-13T19:13:20.886Z,4.30
2023-05-13T19:24:18.153Z,5.38
2023-05-13T19:26:49.636Z,4.90
2023-05-13T19:30:44.665Z,5.70
2023-05-13T19:33:48.014Z,5.70
2023-05-13T19:36:48.510Z,5.55
2023-05-13T19:48:43.136Z,6.35
2023-05-13T19:51:45.334Z,5.30
2023-05-13T19:54:47.436Z,4.75
2023-05-13T19:57:22.197Z,4.40
2023-05-13T20:08:20.671Z,5.03
2023-05-13T20:17:45.950Z,5.55
2023-05-13T20:20:45.776Z,5.70
2023-05-13T20:32:48.939Z,5.45
2023-05-13T20:38:45.489Z,4.97
2023-05-13T20:41:17.006Z,4.00
2023-05-13T20:43:52.706Z,4.35
2023-05-13T20:46:24.148Z,3.47
2023-05-13T20:54:50.953Z,3.38
2023-05-13T20:57:49.675Z,3.40
2023-05-13T21:04:48.636Z,3.20
2023-05-13T21:07:47.052Z,3.13
2023-05-13T21:10:50.115Z,2.88
2023-05-13T21:14:17.117Z,3.60
2023-05-13T21:22:52.888Z,3.40
2023-05-13T21:25:23.610Z,3.45
2023-05-13T21:31:48.255Z,3.38
2023-05-13T21:34:56.210Z,3.53
2023-05-13T21:37:26.492Z,3.10
2023-05-13T21:39:54.881Z,3.13
2023-05-13T21:42:23.924Z,3.03
2023-05-13T21:44:52.262Z,2.60
2023-05-13T21:47:23.410Z,2.80
2023-05-13T21:49:51.652Z,2.90
2023-05-13T21:52:53.298Z,2.47
2023-05-13T21:55:21.738Z,2.60
2023-05-13T21:57:50.700Z,2.90
2023-05-13T22:00:22.620Z,3.30
2023-05-13T22:02:52.362Z,3.33
2023-05-13T22:05:22.149Z,2.97
2023-05-13T22:07:53.502Z,2.40
2023-05-13T22:10:22.043Z,3.05
2023-05-13T22:12:53.447Z,2.70
2023-05-13T22:15:28.561Z,2.88
2023-05-13T22:17:57.109Z,2.80
2023-05-13T22:20:25.842Z,3.00
2023-05-13T22:22:54.291Z,2.50
2023-05-13T22:25:24.535Z,2.53
2023-05-13T22:27:53.221Z,2.72
2023-05-13T22:30:53.836Z,2.78
2023-05-13T22:33:24.990Z,3.08
2023-05-13T22:35:53.938Z,3.05
2023-05-13T22:38:27.969Z,2.50
2023-05-13T22:40:57.084Z,2.40
2023-05-13T22:43:30.320Z,2.65
2023-05-13T22:45:59.201Z,2.28
2023-05-13T22:48:27.760Z,2.20
2023-05-13T22:50:57.932Z,2.53
2023-05-13T22:53:31.648Z,2.45
2023-05-13T23:01:26.056Z,2.20
2023-05-13T23:03:55.891Z,2.55
2023-05-13T23:06:28.287Z,2.13
2023-05-13T23:08:56.651Z,2.50
2023-05-13T23:11:34.165Z,1.98
2023-05-13T23:14:34.523Z,2.10
2023-05-13T23:17:28.080Z,2.30
2023-05-13T23:19:57.442Z,2.42
2023-05-13T23:22:26.983Z,2.00
2023-05-13T23:24:59.322Z,1.85
2023-05-13T23:27:32.343Z,2.20
2023-05-13T23:30:02.019Z,2.08
2023-05-13T23:32:31.226Z,2.03
2023-05-13T23:35:00.030Z,2.22
2023-05-13T23:37:33.633Z,2.22
2023-05-13T23:43:29.570Z,2.05
2023-05-13T23:46:00.784Z,2.00
2023-05-13T23:48:32.778Z,2.08
2023-05-13T23:51:01.109Z,2.38
2023-05-13T23:53:29.765Z,2.00
2023-05-13T23:55:58.412Z,2.50
2023-05-13T23:58:31.952Z,2.20
